LGL2595 ESGG-EGNX
Flight info
| Callsign | LGL2595 |
|---|---|
| Flight time | N/A |
| Altitude | 38000 |
| Route | DETNA N866 GOLUM L975 LESRA DCT ODMOS DCT ERDOW UL975 LIBSO |
| Aircraft | B38M/M-SDE1FGHILORVWXY/HB1 |
Departure
| Time | N/A |
|---|---|
| Airport | Göteborg Landvetter Airport (ESGG) |
Arrival
| Time | 2026-05-08 08:33 |
|---|---|
| Airport | East Midlands Airport (EGNX) |
| Time | Latitude | Longitude | Altitude | Speed | Heading |
|---|---|---|---|---|---|
| 2026-05-08 07:55 | 53.88007 | 0.76049 | 38070 ft | 425 kts | 229° |
| 2026-05-08 07:55 | 53.84166 | 0.68740 | 36893 ft | 421 kts | 229° |
| 2026-05-08 07:55 | 53.82233 | 0.65073 | 36422 ft | 416 kts | 229° |
| 2026-05-08 07:56 | 53.80307 | 0.61427 | 35902 ft | 413 kts | 229° |
| 2026-05-08 07:56 | 53.78397 | 0.57815 | 35369 ft | 411 kts | 229° |
| 2026-05-08 07:56 | 53.76496 | 0.54226 | 34844 ft | 408 kts | 229° |
| 2026-05-08 07:56 | 53.74607 | 0.50666 | 34345 ft | 405 kts | 229° |
| 2026-05-08 07:57 | 53.72733 | 0.47139 | 33841 ft | 402 kts | 228° |
| 2026-05-08 07:57 | 53.70872 | 0.43641 | 33336 ft | 400 kts | 228° |
| 2026-05-08 07:57 | 53.69020 | 0.40165 | 32836 ft | 397 kts | 228° |
| 2026-05-08 07:57 | 53.67178 | 0.36712 | 32340 ft | 394 kts | 228° |
| 2026-05-08 07:58 | 53.65350 | 0.33290 | 31852 ft | 391 kts | 228° |
| 2026-05-08 07:58 | 53.63530 | 0.29890 | 31365 ft | 389 kts | 228° |
| 2026-05-08 07:58 | 53.61726 | 0.26523 | 30871 ft | 386 kts | 228° |
| 2026-05-08 07:58 | 53.59929 | 0.23174 | 30407 ft | 384 kts | 228° |
| 2026-05-08 07:59 | 53.58145 | 0.19852 | 29938 ft | 381 kts | 229° |
| 2026-05-08 07:59 | 53.56370 | 0.16551 | 29479 ft | 379 kts | 228° |
| 2026-05-08 07:59 | 53.54641 | 0.13242 | 29138 ft | 372 kts | 234° |
| 2026-05-08 07:59 | 53.53480 | 0.09447 | 29165 ft | 366 kts | 253° |
| 2026-05-08 08:00 | 53.53100 | 0.05221 | 29110 ft | 368 kts | 269° |
| 2026-05-08 08:00 | 53.53524 | -0.03395 | 29097 ft | 371 kts | 274° |
| 2026-05-08 08:00 | 53.53802 | -0.07681 | 28890 ft | 369 kts | 274° |
| 2026-05-08 08:01 | 53.54097 | -0.11971 | 28548 ft | 369 kts | 274° |
| 2026-05-08 08:01 | 53.54402 | -0.16261 | 28218 ft | 369 kts | 275° |
| 2026-05-08 08:01 | 53.54710 | -0.20527 | 27890 ft | 367 kts | 275° |
| 2026-05-08 08:01 | 53.55019 | -0.24777 | 27671 ft | 366 kts | 275° |
| 2026-05-08 08:02 | 53.55327 | -0.29019 | 27514 ft | 366 kts | 275° |
| 2026-05-08 08:02 | 53.55633 | -0.33264 | 27352 ft | 365 kts | 275° |
| 2026-05-08 08:02 | 53.55938 | -0.37497 | 27207 ft | 364 kts | 275° |
| 2026-05-08 08:02 | 53.56240 | -0.41720 | 27061 ft | 363 kts | 275° |
| 2026-05-08 08:03 | 53.56541 | -0.45940 | 26909 ft | 363 kts | 274° |
| 2026-05-08 08:03 | 53.56838 | -0.50137 | 26753 ft | 362 kts | 274° |
| 2026-05-08 08:03 | 53.57135 | -0.54336 | 26600 ft | 361 kts | 274° |
| 2026-05-08 08:03 | 53.57429 | -0.58533 | 26440 ft | 361 kts | 274° |
| 2026-05-08 08:04 | 53.57718 | -0.62659 | 26283 ft | 360 kts | 274° |
| 2026-05-08 08:04 | 53.58011 | -0.66888 | 26104 ft | 359 kts | 274° |
| 2026-05-08 08:04 | 53.58294 | -0.71000 | 25937 ft | 358 kts | 274° |
| 2026-05-08 08:04 | 53.58584 | -0.75211 | 25790 ft | 357 kts | 274° |
| 2026-05-08 08:05 | 53.58867 | -0.79355 | 25628 ft | 356 kts | 274° |
| 2026-05-08 08:05 | 53.59150 | -0.83495 | 25479 ft | 356 kts | 274° |
| 2026-05-08 08:05 | 53.59429 | -0.87626 | 25310 ft | 355 kts | 274° |
| 2026-05-08 08:05 | 53.59705 | -0.91741 | 25152 ft | 354 kts | 274° |
| 2026-05-08 08:06 | 53.59981 | -0.95851 | 24996 ft | 353 kts | 274° |
| 2026-05-08 08:06 | 53.60255 | -0.99965 | 24843 ft | 353 kts | 274° |
| 2026-05-08 08:06 | 53.60527 | -1.04071 | 24687 ft | 352 kts | 274° |
| 2026-05-08 08:06 | 53.60739 | -1.08168 | 24513 ft | 349 kts | 266° |
| 2026-05-08 08:07 | 53.60410 | -1.12189 | 24360 ft | 346 kts | 258° |
| 2026-05-08 08:07 | 53.60033 | -1.16195 | 24227 ft | 347 kts | 259° |
| 2026-05-08 08:07 | 53.59659 | -1.20141 | 24079 ft | 346 kts | 259° |
| 2026-05-08 08:07 | 53.59274 | -1.24129 | 23925 ft | 345 kts | 258° |
| 2026-05-08 08:08 | 53.58882 | -1.28156 | 23775 ft | 344 kts | 258° |
| 2026-05-08 08:08 | 53.58493 | -1.32120 | 23624 ft | 343 kts | 258° |
| 2026-05-08 08:08 | 53.58108 | -1.36023 | 23479 ft | 342 kts | 258° |
| 2026-05-08 08:08 | 53.57718 | -1.39967 | 23336 ft | 341 kts | 258° |
| 2026-05-08 08:09 | 53.57322 | -1.43958 | 23181 ft | 341 kts | 258° |
| 2026-05-08 08:09 | 53.56937 | -1.47831 | 23039 ft | 340 kts | 258° |
| 2026-05-08 08:09 | 53.56545 | -1.51750 | 22886 ft | 340 kts | 258° |
| 2026-05-08 08:09 | 53.56152 | -1.55661 | 22744 ft | 339 kts | 258° |
| 2026-05-08 08:10 | 53.55760 | -1.59565 | 22597 ft | 338 kts | 258° |
| 2026-05-08 08:10 | 53.55367 | -1.63449 | 22452 ft | 337 kts | 258° |
| 2026-05-08 08:10 | 53.54974 | -1.67331 | 22307 ft | 336 kts | 258° |
| 2026-05-08 08:10 | 53.54580 | -1.71202 | 22161 ft | 336 kts | 258° |
| 2026-05-08 08:11 | 53.54187 | -1.75065 | 22023 ft | 335 kts | 258° |
| 2026-05-08 08:11 | 53.53792 | -1.78919 | 21876 ft | 334 kts | 258° |
| 2026-05-08 08:11 | 53.53399 | -1.82754 | 21738 ft | 333 kts | 258° |
| 2026-05-08 08:11 | 53.52998 | -1.86584 | 21594 ft | 332 kts | 256° |
| 2026-05-08 08:12 | 53.52160 | -1.90142 | 21404 ft | 327 kts | 235° |
| 2026-05-08 08:12 | 53.50809 | -1.93209 | 21308 ft | 327 kts | 233° |
| 2026-05-08 08:12 | 53.49455 | -1.96280 | 21166 ft | 327 kts | 232° |
| 2026-05-08 08:12 | 53.48089 | -1.99324 | 21031 ft | 326 kts | 232° |
| 2026-05-08 08:13 | 53.46715 | -2.02352 | 20887 ft | 325 kts | 232° |
| 2026-05-08 08:13 | 53.45340 | -2.05358 | 20749 ft | 325 kts | 232° |
| 2026-05-08 08:13 | 53.43962 | -2.08360 | 20612 ft | 324 kts | 231° |
| 2026-05-08 08:13 | 53.42592 | -2.11335 | 20474 ft | 323 kts | 231° |
| 2026-05-08 08:14 | 53.41218 | -2.14313 | 20342 ft | 323 kts | 231° |
| 2026-05-08 08:14 | 53.39846 | -2.17284 | 20203 ft | 322 kts | 231° |
| 2026-05-08 08:14 | 53.38425 | -2.20148 | 20013 ft | 317 kts | 222° |
| 2026-05-08 08:14 | 53.36584 | -2.22124 | 19767 ft | 317 kts | 201° |
| 2026-05-08 08:15 | 53.34427 | -2.22851 | 19526 ft | 319 kts | 182° |
| 2026-05-08 08:15 | 53.32233 | -2.22311 | 19258 ft | 322 kts | 163° |
| 2026-05-08 08:15 | 53.30184 | -2.20792 | 18969 ft | 323 kts | 156° |
| 2026-05-08 08:15 | 53.28181 | -2.19088 | 18680 ft | 322 kts | 155° |
| 2026-05-08 08:16 | 53.26205 | -2.17344 | 18402 ft | 321 kts | 154° |
| 2026-05-08 08:16 | 53.24236 | -2.15576 | 18117 ft | 320 kts | 154° |
| 2026-05-08 08:16 | 53.22283 | -2.13803 | 17832 ft | 319 kts | 154° |
| 2026-05-08 08:16 | 53.20343 | -2.12030 | 17549 ft | 317 kts | 154° |
| 2026-05-08 08:17 | 53.18408 | -2.10257 | 17263 ft | 316 kts | 154° |
| 2026-05-08 08:17 | 53.16484 | -2.08492 | 16972 ft | 315 kts | 154° |
| 2026-05-08 08:17 | 53.14570 | -2.06735 | 16704 ft | 314 kts | 154° |
| 2026-05-08 08:17 | 53.12662 | -2.04987 | 16427 ft | 313 kts | 154° |
| 2026-05-08 08:18 | 53.10760 | -2.03246 | 16145 ft | 311 kts | 154° |
| 2026-05-08 08:18 | 53.08865 | -2.01512 | 15873 ft | 310 kts | 154° |
| 2026-05-08 08:18 | 53.06991 | -1.99737 | 15572 ft | 310 kts | 147° |
| 2026-05-08 08:18 | 53.05498 | -1.97167 | 15264 ft | 312 kts | 124° |
| 2026-05-08 08:19 | 53.04712 | -1.93828 | 15001 ft | 312 kts | 102° |
| 2026-05-08 08:19 | 53.04636 | -1.90214 | 14745 ft | 316 kts | 89° |
| 2026-05-08 08:19 | 53.04733 | -1.86556 | 14458 ft | 317 kts | 89° |
| 2026-05-08 08:19 | 53.04843 | -1.82910 | 14171 ft | 316 kts | 89° |
| 2026-05-08 08:20 | 53.04963 | -1.79269 | 13885 ft | 315 kts | 88° |
| 2026-05-08 08:20 | 53.05088 | -1.75649 | 13616 ft | 314 kts | 88° |
| 2026-05-08 08:20 | 53.05217 | -1.72029 | 13337 ft | 313 kts | 88° |
| 2026-05-08 08:20 | 53.05346 | -1.68426 | 13062 ft | 312 kts | 88° |
| 2026-05-08 08:21 | 53.05379 | -1.64827 | 12764 ft | 311 kts | 92° |
| 2026-05-08 08:21 | 53.05368 | -1.61236 | 12484 ft | 310 kts | 91° |
| 2026-05-08 08:21 | 53.05364 | -1.57663 | 12221 ft | 309 kts | 91° |
| 2026-05-08 08:21 | 53.05362 | -1.54104 | 11957 ft | 308 kts | 91° |
| 2026-05-08 08:22 | 53.05362 | -1.50570 | 11672 ft | 300 kts | 91° |
| 2026-05-08 08:22 | 53.05361 | -1.47186 | 11421 ft | 287 kts | 91° |
| 2026-05-08 08:22 | 53.05359 | -1.43934 | 11157 ft | 276 kts | 92° |
| 2026-05-08 08:22 | 53.05358 | -1.40828 | 10909 ft | 265 kts | 92° |
| 2026-05-08 08:23 | 53.05354 | -1.37735 | 10704 ft | 282 kts | 92° |
| 2026-05-08 08:23 | 53.05349 | -1.34570 | 10467 ft | 271 kts | 93° |
| 2026-05-08 08:23 | 53.05014 | -1.31560 | 10162 ft | 257 kts | 118° |
| 2026-05-08 08:23 | 53.03903 | -1.29381 | 9831 ft | 243 kts | 148° |
| 2026-05-08 08:24 | 53.02402 | -1.28364 | 9585 ft | 234 kts | 173° |
| 2026-05-08 08:24 | 53.00806 | -1.28496 | 9361 ft | 230 kts | 197° |
| 2026-05-08 08:24 | 52.99406 | -1.29773 | 9070 ft | 233 kts | 222° |
| 2026-05-08 08:24 | 52.98486 | -1.31971 | 8770 ft | 235 kts | 248° |
| 2026-05-08 08:25 | 52.98236 | -1.34632 | 8538 ft | 237 kts | 273° |
| 2026-05-08 08:25 | 52.98660 | -1.37250 | 8445 ft | 232 kts | 289° |
| 2026-05-08 08:25 | 52.99213 | -1.39687 | 8308 ft | 220 kts | 288° |
| 2026-05-08 08:25 | 52.99724 | -1.42018 | 8146 ft | 209 kts | 287° |
| 2026-05-08 08:26 | 53.00237 | -1.44201 | 7973 ft | 199 kts | 285° |
| 2026-05-08 08:26 | 53.00229 | -1.46388 | 7511 ft | 189 kts | 242° |
| 2026-05-08 08:26 | 52.99353 | -1.47899 | 7112 ft | 180 kts | 210° |
| 2026-05-08 08:26 | 52.98216 | -1.48684 | 6710 ft | 176 kts | 192° |
| 2026-05-08 08:27 | 52.97007 | -1.48812 | 6300 ft | 174 kts | 177° |
| 2026-05-08 08:27 | 52.95819 | -1.48779 | 5983 ft | 166 kts | 179° |
| 2026-05-08 08:27 | 52.94712 | -1.48759 | 5705 ft | 156 kts | 181° |
| 2026-05-08 08:27 | 52.93642 | -1.48781 | 5362 ft | 152 kts | 181° |
| 2026-05-08 08:28 | 52.92590 | -1.48800 | 5018 ft | 150 kts | 181° |
| 2026-05-08 08:28 | 52.91567 | -1.48818 | 4620 ft | 146 kts | 181° |
| 2026-05-08 08:28 | 52.90550 | -1.48821 | 4198 ft | 145 kts | 180° |
| 2026-05-08 08:28 | 52.89560 | -1.48849 | 3828 ft | 139 kts | 181° |
| 2026-05-08 08:29 | 52.88598 | -1.48872 | 3443 ft | 136 kts | 180° |
| 2026-05-08 08:29 | 52.87659 | -1.48899 | 3059 ft | 134 kts | 181° |
| 2026-05-08 08:29 | 52.86730 | -1.48935 | 2797 ft | 134 kts | 180° |
| 2026-05-08 08:29 | 52.85769 | -1.48935 | 2501 ft | 141 kts | 177° |
| 2026-05-08 08:30 | 52.84758 | -1.48897 | 2182 ft | 150 kts | 176° |
| 2026-05-08 08:30 | 52.83720 | -1.48730 | 1910 ft | 150 kts | 162° |
| 2026-05-08 08:30 | 52.82719 | -1.46213 | 1636 ft | 143 kts | 81° |
| 2026-05-08 08:31 | 52.82870 | -1.44552 | 1442 ft | 150 kts | 83° |
| 2026-05-08 08:31 | 52.82925 | -1.42797 | 1361 ft | 154 kts | 86° |
| 2026-05-08 08:31 | 52.82954 | -1.41045 | 1131 ft | 151 kts | 88° |
| 2026-05-08 08:31 | 52.82961 | -1.39333 | 899 ft | 145 kts | 88° |
| 2026-05-08 08:32 | 52.83002 | -1.37692 | 767 ft | 146 kts | 86° |
| 2026-05-08 08:32 | 52.83046 | -1.35957 | 514 ft | 149 kts | 89° |
| 2026-05-08 08:32 | 52.83074 | -1.34339 | 311 ft | 134 kts | 88° |
| 2026-05-08 08:32 | 52.83096 | -1.33040 | 307 ft | 82 kts | 88° |
| 2026-05-08 08:33 | 52.83107 | -1.32377 | 303 ft | 46 kts | 88° |
| 2026-05-08 08:33 | 52.83113 | -1.32022 | 308 ft | 46 kts | 88° |
| 2026-05-08 08:33 | 52.83123 | -1.31515 | 312 ft | 37 kts | 87° |
| 2026-05-08 08:33 | 52.83100 | -1.31312 | 307 ft | 6 kts | 160° |
| 2026-05-08 08:34 | 52.83059 | -1.31310 | 306 ft | 8 kts | 180° |
| 2026-05-08 08:34 | 52.82995 | -1.31313 | 303 ft | 8 kts | 189° |
| 2026-05-08 08:34 | 52.82959 | -1.31384 | 306 ft | 9 kts | 259° |
| 2026-05-08 08:34 | 52.82954 | -1.31460 | 304 ft | 11 kts | 266° |
| 2026-05-08 08:35 | 52.82950 | -1.31597 | 303 ft | 13 kts | 267° |
| 2026-05-08 08:35 | 52.82948 | -1.31760 | 304 ft | 15 kts | 269° |
| 2026-05-08 08:35 | 52.82945 | -1.31948 | 303 ft | 18 kts | 268° |
| 2026-05-08 08:35 | 52.82942 | -1.32164 | 303 ft | 20 kts | 268° |
| 2026-05-08 08:36 | 52.82938 | -1.32405 | 304 ft | 22 kts | 268° |
| 2026-05-08 08:36 | 52.82934 | -1.32672 | 303 ft | 24 kts | 268° |
| 2026-05-08 08:36 | 52.82929 | -1.32811 | 304 ft | 9 kts | 256° |
| 2026-05-08 08:36 | 52.82874 | -1.32857 | 303 ft | 11 kts | 179° |
| 2026-05-08 08:37 | 52.82817 | -1.32866 | 303 ft | 7 kts | 207° |
| 2026-05-08 08:37 | 52.82792 | -1.32923 | 304 ft | 4 kts | 222° |
| 2026-05-08 08:37 | 52.82764 | -1.32936 | 303 ft | 4 kts | 190° |
| 2026-05-08 08:37 | 52.82748 | -1.32935 | 303 ft | 3 kts | 178° |
| 2026-05-08 08:38 | 52.82728 | -1.32934 | 303 ft | 1 kts | 178° |
| 2026-05-08 08:38 | 52.82726 | -1.32934 | 303 ft | 0 kts | 178° |